Time;durP1;ratioP1;P1;durP2;ratioP2;P2;SDS_P1;SDS_P2;PMS_P1;PMS_P2;Temp;Humidity;BMP_temperature;BMP_pressure;BME280_temperature;BME280_humidity;BME280_pressure;Samples;Min_cycle;Max_cycle;Signal;HPM_P1;HPM_P2
2022/05/03 00:04:19;;;;;;;0.00;0.00;;;13.60;90.90;;;12.14;64.60;99950.88;10376896;27;96618;-80
2022/05/03 00:09:50;;;;;;;0.00;0.00;;;13.60;90.50;;;12.05;65.69;99950.16;10387427;27;96728;-80
2022/05/03 00:14:56;;;;;;;;;;;13.50;92.80;;;11.98;65.40;99951.03;10388149;27;96745;-80
2022/05/03 00:20:02;;;;;;;0.00;0.00;;;13.40;92.00;;;11.90;65.04;99957.28;10387677;27;99264;-80
2022/05/03 00:25:05;;;;;;;0.00;0.00;;;13.30;91.90;;;11.74;65.49;99941.44;10423800;27;96473;-81
2022/05/03 00:30:09;;;;;;;0.50;0.50;;;13.10;93.00;;;11.65;66.35;99945.22;10425095;27;96565;-80
2022/05/03 00:35:12;;;;;;;0.50;0.50;;;13.00;93.40;;;11.62;66.15;99940.22;10415052;27;96496;-80
2022/05/03 00:40:18;;;;;;;0.10;0.10;;;13.00;92.70;;;11.57;66.83;99934.63;10401189;27;96477;-80
2022/05/03 00:45:40;;;;;;;0.00;0.00;;;13.00;93.90;;;11.56;66.96;99940.94;10400265;27;96832;-80
2022/05/03 00:50:55;;;;;;;0.00;0.00;;;12.90;93.20;;;11.47;67.58;99930.41;10383364;28;96682;-80
2022/05/03 00:56:40;;;;;;;0.00;0.00;;;12.90;96.10;;;11.39;68.28;99932.28;10363447;27;96686;-80
2022/05/03 01:02:13;;;;;;;0.00;0.00;;;12.80;94.70;;;11.29;68.75;99937.88;10382977;27;98245;-80
2022/05/03 01:07:42;;;;;;;0.00;0.00;;;12.70;97.40;;;11.18;69.44;99941.78;10385440;27;96815;-80
2022/05/03 01:13:02;;;;;;;0.00;0.00;;;12.60;97.90;;;11.16;70.25;99933.16;10426414;27;97502;-80
2022/05/03 01:18:29;;;;;;;0.00;0.00;;;12.60;96.50;;;11.12;71.03;99931.84;10395022;27;98611;-80
2022/05/03 01:23:52;;;;;;;0.20;0.10;;;12.60;99.80;;;11.11;70.72;99929.38;10410294;27;96832;-79
2022/05/03 01:29:32;;;;;;;0.17;0.13;;;12.50;98.60;;;11.09;70.58;99931.34;10409436;27;98476;-80
2022/05/03 01:34:37;;;;;;;0.00;0.00;;;12.50;99.60;;;11.05;71.11;99932.75;10400314;27;96957;-80
2022/05/03 01:39:54;;;;;;;0.00;0.00;;;12.40;99.40;;;11.03;70.89;99938.22;10418359;27;96601;-80
2022/05/03 01:45:08;;;;;;;0.00;0.00;;;12.40;98.50;;;10.99;71.18;99943.06;10433234;27;96697;-80
2022/05/03 01:50:39;;;;;;;1.87;0.97;;;12.50;99.90;;;10.99;71.55;99942.25;10421588;27;96429;-80
2022/05/03 01:55:57;;;;;;;0.10;0.10;;;12.40;99.70;;;10.96;71.84;99946.06;10402312;27;97945;-80
2022/05/03 02:01:41;;;;;;;0.00;0.00;;;12.40;99.90;;;10.90;71.84;99948.59;10401810;27;97393;-80
2022/05/03 02:06:55;;;;;;;0.00;0.00;;;12.30;99.90;;;10.80;72.02;99954.16;10379703;27;97332;-80
2022/05/03 02:12:19;;;;;;;0.00;0.00;;;12.20;99.90;;;10.68;72.39;99947.59;10397490;27;97393;-81
2022/05/03 02:17:44;;;;;;;0.00;0.00;;;12.10;99.90;;;10.58;72.73;99950.47;10401753;27;97310;-80
2022/05/03 02:23:13;;;;;;;0.20;0.20;;;12.00;99.90;;;10.55;72.88;99949.97;10407580;27;96603;-80
2022/05/03 02:28:53;;;;;;;0.00;0.00;;;12.00;99.90;;;10.49;73.16;99948.00;10406947;27;96524;-80
2022/05/03 02:34:07;;;;;;;0.00;0.00;;;11.90;99.90;;;10.47;73.14;99937.56;10394488;27;96806;-79
2022/05/03 02:39:12;;;;;;;0.00;0.00;;;11.90;99.90;;;10.43;73.29;99937.09;10451620;27;96496;-79
2022/05/03 02:44:17;;;;;;;0.00;0.00;;;11.90;99.90;;;10.42;74.09;99943.38;10449636;27;97197;-79
2022/05/03 02:49:43;;;;;;;0.00;0.00;;;11.80;99.90;;;10.43;73.59;99946.88;10417312;27;96651;-79
2022/05/03 02:55:20;;;;;;;0.00;0.00;;;11.80;99.90;;;10.39;73.78;99941.09;10390421;27;96611;-79
2022/05/03 03:05:55;;;;;;;0.00;0.00;;;11.80;99.90;;;10.34;74.18;99940.78;10389655;27;96638;-79
2022/05/03 03:11:07;;;;;;;0.00;0.00;;;11.80;99.90;;;10.31;74.31;99945.59;10402085;27;96616;-80
2022/05/03 03:16:14;;;;;;;0.00;0.00;;;11.80;99.90;;;10.27;74.42;99950.44;10403290;27;96941;-80
2022/05/03 03:21:27;;;;;;;0.00;0.00;;;11.70;99.90;;;10.22;74.34;99950.09;10377273;27;97493;-80
2022/05/03 03:26:31;;;;;;;0.00;0.00;;;11.70;99.90;;;10.19;74.25;99961.03;10415970;27;96947;-80
2022/05/03 03:31:35;;;;;;;0.10;0.10;;;11.60;99.90;;;10.12;73.96;99965.38;10401751;27;96761;-80
2022/05/03 03:36:41;;;;;;;0.00;0.00;;;11.60;99.90;;;10.07;73.94;99968.53;10411391;27;96656;-81
2022/05/03 03:41:47;;;;;;;0.07;0.07;;;11.60;99.90;;;9.97;74.65;99967.09;10414307;27;97516;-80
2022/05/03 03:46:50;;;;;;;0.00;0.00;;;11.50;99.90;;;9.85;74.69;99962.13;10392625;27;98539;-80
2022/05/03 03:51:55;;;;;;;0.00;0.00;;;11.40;99.90;;;9.77;75.20;99967.44;10395844;27;96674;-80
2022/05/03 03:56:58;;;;;;;0.00;0.00;;;11.20;99.90;;;9.73;75.62;99976.75;10397154;27;96484;-80
2022/05/03 04:02:02;;;;;;;0.20;0.20;;;11.20;99.90;;;9.69;76.15;99975.41;10399180;27;96565;-80
2022/05/03 04:07:05;;;;;;;0.00;0.00;;;11.10;99.90;;;9.73;76.18;99976.75;10407454;27;96441;-80
2022/05/03 04:12:08;;;;;;;0.07;0.07;;;11.10;99.90;;;9.78;76.36;99977.09;10402024;27;96755;-80
2022/05/03 04:17:11;;;;;;;4.40;0.37;;;11.20;99.90;;;9.81;76.27;99974.06;10376197;27;97236;-80
2022/05/03 04:22:27;;;;;;;0.00;0.00;;;11.20;99.90;;;9.88;76.37;99985.66;10385812;27;96725;-80
2022/05/03 04:27:30;;;;;;;0.23;0.10;;;11.30;99.90;;;10.01;76.24;99990.44;10407207;27;96663;-81
2022/05/03 04:32:34;;;;;;;0.10;0.10;;;11.30;99.90;;;10.16;75.97;99994.09;10434867;27;96741;-81
2022/05/03 04:37:37;;;;;;;0.00;0.00;;;11.50;99.90;;;10.30;75.66;99987.25;10390659;27;96445;-80
2022/05/03 04:42:40;;;;;;;0.00;0.00;;;11.60;99.90;;;10.41;75.89;99996.69;10394234;27;98657;-80
2022/05/03 04:47:43;;;;;;;0.10;0.10;;;11.70;99.90;;;10.54;75.91;99988.16;10392946;27;98941;-80
2022/05/03 04:52:46;;;;;;;0.00;0.00;;;11.90;99.90;;;10.66;75.34;99989.44;10419248;27;98802;-80
2022/05/03 04:57:50;;;;;;;0.00;0.00;;;12.00;99.90;;;10.79;75.13;99995.00;10412648;27;97384;-80
2022/05/03 05:02:53;;;;;;;0.10;0.03;;;12.10;99.90;;;10.92;74.60;99992.63;10387987;27;96557;-79
2022/05/03 05:08:06;;;;;;;0.00;0.00;;;12.20;99.90;;;11.09;74.13;99984.53;10429163;27;96296;-80
2022/05/03 05:13:09;;;;;;;0.00;0.00;;;12.30;99.90;;;11.28;73.86;99983.28;10421614;27;96491;-80
2022/05/03 05:18:14;;;;;;;0.00;0.00;;;12.50;99.90;;;11.47;73.81;99986.28;10421813;27;97442;-80
2022/05/03 05:23:17;;;;;;;0.40;0.40;;;12.70;99.90;;;11.70;73.28;99983.59;10489127;27;97580;-80
2022/05/03 05:28:23;;;;;;;0.13;0.10;;;12.90;99.90;;;11.92;73.21;99986.41;10443483;27;96539;-80
2022/05/03 05:33:26;;;;;;;0.00;0.00;;;13.10;99.90;;;12.14;73.13;99982.84;10409609;27;96724;-80
2022/05/03 05:38:30;;;;;;;0.57;0.40;;;13.30;99.90;;;12.37;72.70;99980.09;10384006;27;96465;-80
2022/05/03 05:43:36;;;;;;;0.00;0.00;;;13.50;99.90;;;12.57;71.15;99980.34;10398232;27;96799;-80
2022/05/03 05:48:39;;;;;;;0.00;0.00;;;13.70;99.90;;;12.78;70.84;99976.91;10382585;27;96570;-80
2022/05/03 05:53:43;;;;;;;0.00;0.00;;;13.90;99.90;;;13.01;70.08;99976.72;10381169;27;98514;-80
2022/05/03 05:58:47;;;;;;;0.00;0.00;;;14.20;99.90;;;13.28;69.96;99969.88;10379162;28;96461;-80
2022/05/03 06:03:49;;;;;;;0.00;0.00;;;14.40;99.90;;;13.52;68.92;99972.13;10398033;27;96558;-80
2022/05/03 06:08:53;;;;;;;0.00;0.00;;;14.60;99.90;;;13.78;67.88;99976.03;10396153;27;96496;-80
2022/05/03 06:13:55;;;;;;;0.10;0.10;;;14.90;99.90;;;14.03;67.33;99982.56;10379017;28;96506;-80
2022/05/03 06:18:58;;;;;;;0.53;0.47;;;15.20;99.50;;;14.25;66.46;99969.97;10378659;27;96446;-80
2022/05/03 06:24:01;;;;;;;0.15;0.13;;;15.40;98.60;;;14.48;64.84;99979.59;10379183;28;96401;-80
2022/05/03 06:29:06;;;;;;;0.98;0.93;;;15.60;97.10;;;14.68;63.52;99978.63;10378120;27;96554;-80
2022/05/03 06:34:10;;;;;;;0.05;0.03;;;15.80;96.20;;;14.88;63.33;99986.75;10395553;27;96556;-80
2022/05/03 06:39:13;;;;;;;0.15;0.10;;;16.00;95.80;;;15.06;62.73;99980.03;10403089;27;96700;-80
2022/05/03 06:44:16;;;;;;;0.30;0.10;;;16.30;95.20;;;15.33;62.23;99980.88;10419166;28;96416;-80
2022/05/03 06:49:20;;;;;;;0.00;0.00;;;16.50;94.80;;;15.55;59.11;99973.50;10400855;27;98442;-80
2022/05/03 06:54:23;;;;;;;0.52;0.52;;;16.70;92.60;;;15.83;58.45;99970.59;10389918;27;98358;-80
2022/05/03 06:59:26;;;;;;;0.10;0.10;;;17.00;91.80;;;16.09;58.05;99964.41;10376917;28;96397;-80
2022/05/03 07:04:29;;;;;;;0.00;0.00;;;17.20;90.80;;;16.30;57.18;99972.19;10377143;27;96588;-81
2022/05/03 07:09:33;;;;;;;0.10;0.10;;;17.40;89.50;;;16.57;56.26;99963.03;10400985;27;96769;-80
2022/05/03 07:14:37;;;;;;;0.00;0.00;;;17.70;87.80;;;16.78;54.62;99971.81;10393556;27;96575;-80
2022/05/03 07:25:21;;;;;;;0.00;0.00;;;18.10;82.50;;;17.36;53.25;99959.09;10285961;28;96690;-80
2022/05/03 07:30:24;;;;;;;0.40;0.40;;;18.40;81.50;;;17.66;52.40;99963.81;10349325;27;96660;-80
2022/05/03 07:35:27;;;;;;;0.03;0.03;;;18.80;79.00;;;17.90;51.76;99968.38;10376057;27;97591;-80
2022/05/03 07:40:30;;;;;;;0.10;0.10;;;19.00;78.10;;;18.12;50.63;99959.91;10386028;27;98490;-80
2022/05/03 07:45:33;;;;;;;0.30;0.30;;;19.20;76.90;;;18.35;49.32;99957.38;10391122;27;96628;-80
2022/05/03 07:50:38;;;;;;;0.08;0.08;;;19.40;74.00;;;18.56;49.00;99961.47;10375640;28;96598;-81
2022/05/03 07:55:45;;;;;;;0.45;0.45;;;19.70;72.30;;;18.80;49.02;99964.31;10417800;27;98153;-81
2022/05/03 08:00:48;;;;;;;0.28;0.28;;;19.90;72.00;;;18.96;47.47;99961.81;10376027;27;96574;-80
2022/05/03 08:05:52;;;;;;;0.25;0.20;;;20.00;70.70;;;19.23;47.51;99959.53;10358066;27;96547;-80
2022/05/03 08:10:55;;;;;;;0.00;0.00;;;20.30;70.50;;;19.50;47.09;99959.97;10374698;28;96404;-80
2022/05/03 08:15:58;;;;;;;0.00;0.00;;;20.60;69.20;;;19.94;45.75;99951.59;10374976;27;96551;-81
2022/05/03 08:21:01;;;;;;;0.00;0.00;;;20.90;67.80;;;20.28;45.23;99950.72;10373772;28;96358;-80
2022/05/03 08:26:04;;;;;;;0.00;0.00;;;21.20;66.40;;;20.35;43.33;99950.59;10377277;27;96653;-80
2022/05/03 08:31:10;;;;;;;0.65;0.22;;;21.40;64.40;;;20.42;45.27;99942.38;10374587;27;96535;-81
2022/05/03 08:36:14;;;;;;;0.00;0.00;;;21.50;65.10;;;20.46;42.86;99941.69;10360342;28;96599;-80
2022/05/03 08:46:42;;;;;;;0.03;0.03;;;21.70;62.20;;;20.75;43.49;99939.84;10399220;27;96511;-80
2022/05/03 08:51:45;;;;;;;0.50;0.15;;;21.80;61.00;;;21.01;42.41;99927.63;10373429;27;96641;-81
2022/05/03 08:56:48;;;;;;;0.00;0.00;;;22.10;61.50;;;21.27;41.58;99936.16;10372805;28;96462;-81
2022/05/03 09:01:51;;;;;;;0.00;0.00;;;22.30;59.10;;;21.45;38.41;99930.53;10374048;27;96527;-81
2022/05/03 09:06:55;;;;;;;0.00;0.00;;;22.60;56.00;;;21.62;38.91;99923.25;10373444;28;96493;-81
2022/05/03 09:11:58;;;;;;;0.00;0.00;;;22.70;56.90;;;21.72;38.11;99916.38;10372667;27;96465;-81
2022/05/03 09:17:02;;;;;;;0.10;0.10;;;22.80;55.10;;;21.73;37.40;99923.41;10374123;27;96874;-81
2022/05/03 09:27:27;;;;;;;0.08;0.08;;;23.00;54.80;;;22.15;37.52;99921.06;10393453;27;96700;-80
2022/05/03 09:32:52;;;;;;;0.00;0.00;;;23.30;54.40;;;22.37;37.37;99915.66;10376756;27;96518;-80
2022/05/03 09:37:55;;;;;;;0.00;0.00;;;23.50;53.60;;;22.52;36.07;99913.13;10372287;27;97489;-78
2022/05/03 09:42:58;;;;;;;0.00;0.00;;;23.60;52.80;;;22.77;35.39;99918.00;10354790;28;96426;-78
2022/05/03 09:48:02;;;;;;;0.10;0.10;;;23.80;52.20;;;22.80;34.49;99916.69;10386250;27;98438;-80
2022/05/03 09:53:22;;;;;;;0.00;0.00;;;23.90;48.70;;;22.47;35.49;99915.78;10412715;27;96624;-80
2022/05/03 09:58:25;;;;;;;;;;;23.60;50.30;;;22.18;35.46;99920.56;10414226;27;96404;-80
2022/05/03 10:03:29;;;;;;;0.10;0.10;;;23.40;49.90;;;21.89;35.78;99906.31;10403541;28;96490;-81
2022/05/03 10:08:33;;;;;;;2.58;0.40;;;23.10;50.00;;;21.53;36.63;99905.81;10420834;28;97787;-81
2022/05/03 10:13:36;;;;;;;0.10;0.10;;;22.70;51.10;;;21.20;33.89;99906.59;10379565;27;98306;-81
2022/05/03 10:24:12;;;;;;;0.00;0.00;;;22.00;46.40;;;20.78;34.80;99896.13;10400239;27;98927;-80
2022/05/03 10:29:15;;;;;;;0.00;0.00;;;21.90;48.10;;;20.89;33.80;99907.94;10378099;28;96468;-79
2022/05/03 10:34:40;;;;;;;0.82;0.45;;;21.90;47.70;;;21.16;35.31;99896.50;10406620;27;97571;-79
2022/05/03 10:39:54;;;;;;;0.00;0.00;;;22.10;50.20;;;21.58;34.82;99886.94;10378544;28;96613;-80
2022/05/03 10:45:06;;;;;;;0.00;0.00;;;22.40;49.20;;;21.77;33.97;99886.69;10372170;27;96626;-81
2022/05/03 10:50:12;;;;;;;0.00;0.00;;;22.70;49.00;;;21.94;34.44;99882.06;10456456;27;97595;-81
2022/05/03 10:55:15;;;;;;;0.10;0.10;;;22.80;49.20;;;21.97;34.62;99886.97;10442610;27;98462;-79
2022/05/03 11:00:56;;;;;;;1.02;0.40;;;23.00;49.40;;;21.83;36.03;99880.28;10415684;27;96587;-81
2022/05/03 11:06:21;;;;;;;0.20;0.20;;;22.90;50.50;;;21.93;35.74;99869.59;10375746;28;97786;-81
2022/05/03 11:11:43;;;;;;;0.30;0.30;;;22.90;50.60;;;22.34;34.41;99875.56;10434512;27;96483;-80
2022/05/03 11:17:04;;;;;;;0.17;0.10;;;23.30;49.40;;;22.42;33.14;99866.97;10433085;27;96522;-80
2022/05/03 11:22:41;;;;;;;0.00;0.00;;;23.40;47.20;;;22.50;33.09;99857.59;10375272;28;96483;-81
2022/05/03 11:27:44;;;;;;;0.10;0.10;;;23.50;48.10;;;22.95;31.96;99849.13;10375847;27;97731;-82
2022/05/03 11:32:57;;;;;;;0.00;0.00;;;23.80;46.30;;;23.22;29.74;99844.47;10387899;27;96586;-82
2022/05/03 11:38:02;;;;;;;;;;;24.10;44.70;;;23.71;29.30;99829.91;10414513;27;97430;-81
2022/05/03 11:43:05;;;;;;;1.67;1.08;;;24.40;43.60;;;24.06;28.52;99823.84;10417181;28;96485;-80
2022/05/03 11:48:08;;;;;;;0.40;0.40;;;24.60;42.60;;;24.36;27.01;99817.72;10393484;27;96524;-81
2022/05/03 11:58:40;;;;;;;0.03;0.03;;;25.00;40.50;;;24.52;25.79;99811.22;10375404;28;96421;-81
2022/05/03 12:03:56;;;;;;;0.22;0.22;;;25.10;39.20;;;24.47;26.72;99816.66;10377520;27;96569;-82
2022/05/03 12:08:59;;;;;;;0.00;0.00;;;25.10;41.40;;;24.62;28.59;99813.13;10374342;28;96462;-82
2022/05/03 12:14:02;;;;;;;0.00;0.00;;;25.30;43.30;;;24.93;27.25;99799.56;10400249;27;97496;-82
2022/05/03 12:19:19;;;;;;;0.00;0.00;;;25.60;42.00;;;25.09;27.01;99810.19;10383261;27;98401;-82
2022/05/03 12:24:34;;;;;;;0.00;0.00;;;25.80;41.40;;;24.99;25.52;99801.19;10388061;27;96445;-82
2022/05/03 12:29:47;;;;;;;0.60;0.40;;;25.90;39.60;;;25.05;24.41;99795.50;10373143;28;96431;-82
2022/05/03 12:35:01;;;;;;;0.08;0.08;;;25.90;39.60;;;24.90;24.21;99791.97;10372544;27;96449;-80
2022/05/03 12:40:04;;;;;;;0.30;0.20;;;25.90;38.10;;;24.90;24.21;99792.78;10422114;27;98388;-80
2022/05/03 12:45:11;;;;;;;0.00;0.00;;;25.90;37.80;;;25.24;23.90;99787.59;10405515;28;96671;-81
2022/05/03 12:50:15;;;;;;;0.00;0.00;;;26.20;38.40;;;25.60;25.10;99779.34;10383290;27;97341;-81
2022/05/03 12:55:19;;;;;;;0.20;0.10;;;26.50;38.70;;;25.78;25.54;99784.22;10413605;27;99017;-81
2022/05/03 13:00:22;;;;;;;0.03;0.00;;;26.80;39.60;;;25.79;24.24;99785.88;10433714;27;96754;-80
2022/05/03 13:05:25;;;;;;;0.00;0.00;;;27.10;39.20;;;25.01;27.96;99790.84;10394600;27;97028;-80
2022/05/03 13:10:28;;;;;;;0.20;0.10;;;26.70;40.90;;;24.04;30.26;99786.09;10400759;28;97898;-81
2022/05/03 13:15:32;;;;;;;0.00;0.00;;;25.90;43.00;;;24.03;31.60;99794.50;10405369;27;96686;-81
2022/05/03 13:20:39;;;;;;;0.00;0.00;;;25.80;44.10;;;24.20;32.68;99795.09;10407579;27;98182;-80
2022/05/03 13:25:42;;;;;;;0.00;0.00;;;26.20;44.90;;;24.11;32.92;99788.56;10393248;27;96682;-80
2022/05/03 13:30:45;;;;;;;0.00;0.00;;;26.30;44.60;;;23.83;33.08;99791.72;10387452;27;96653;-80
2022/05/03 13:41:12;;;;;;;0.38;0.30;;;25.40;44.80;;;22.62;33.47;99780.56;10414406;27;98588;-81
2022/05/03 13:46:15;;;;;;;0.00;0.00;;;24.60;45.00;;;22.27;33.58;99789.16;10397799;27;96723;-80
2022/05/03 13:51:18;;;;;;;0.00;0.00;;;24.10;45.40;;;21.94;33.62;99783.84;10418852;27;96728;-80
2022/05/03 13:56:21;;;;;;;0.10;0.10;;;23.70;45.60;;;21.71;33.92;99784.91;10395930;28;97611;-80
2022/05/03 14:01:24;;;;;;;0.00;0.00;;;23.30;45.80;;;21.52;33.66;99787.91;10418262;27;97561;-81
2022/05/03 14:06:27;;;;;;;0.30;0.25;;;23.00;45.90;;;21.48;33.79;99802.19;10407232;27;97589;-81
2022/05/03 14:11:32;;;;;;;0.00;0.00;;;22.90;46.40;;;21.49;34.79;99810.06;10415761;28;96474;-81
2022/05/03 14:16:35;;;;;;;0.40;0.40;;;22.90;47.10;;;21.50;34.86;99810.88;10414134;27;96882;-81
2022/05/03 14:21:40;;;;;;;0.00;0.00;;;22.80;47.40;;;21.40;36.56;99805.31;10419770;27;96619;-82
2022/05/03 14:26:43;;;;;;;1.02;0.20;;;22.60;50.20;;;21.18;37.49;99808.75;10401463;27;96568;-81
2022/05/03 14:31:46;;;;;;;0.00;0.00;;;22.40;50.90;;;21.01;36.70;99813.34;10414084;27;97461;-84
2022/05/03 14:36:49;;;;;;;0.10;0.10;;;22.20;49.50;;;20.97;37.39;99796.81;10408464;27;97840;-82
2022/05/03 14:41:53;;;;;;;0.03;0.03;;;22.10;50.00;;;21.02;35.82;99804.19;10407989;27;96547;-83
2022/05/03 14:47:00;;;;;;;0.00;0.00;;;22.20;49.20;;;21.13;36.42;99802.47;10400790;27;96413;-82
2022/05/03 15:02:57;;;;;;;0.00;0.00;;;22.90;47.50;;;22.44;32.88;99806.09;10153128;28;96539;-77
2022/05/03 15:08:03;;;;;;;0.10;0.10;;;23.50;46.60;;;22.48;32.83;99798.28;10155702;28;96564;-78
2022/05/03 15:13:08;;;;;;;0.05;0.00;;;23.70;46.40;;;22.38;33.92;99811.72;10172120;28;97006;-78
2022/05/03 15:18:12;;;;;;;0.00;0.00;;;23.70;47.10;;;22.16;35.92;99820.69;10168139;28;96764;-78
2022/05/03 15:28:41;;;;;;;1.05;0.63;;;23.20;48.00;;;21.41;35.51;99861.00;10169695;28;98595;-78
2022/05/03 15:33:45;;;;;;;0.20;0.17;;;22.90;48.20;;;21.00;34.49;99857.63;10165991;28;97973;-78
2022/05/03 15:38:48;;;;;;;0.10;0.10;;;22.40;47.10;;;20.62;35.26;99855.59;10147209;28;96824;-77
2022/05/03 15:43:51;;;;;;;0.05;0.00;;;22.00;47.80;;;20.28;36.26;99859.00;10151112;28;96761;-77
2022/05/03 15:48:56;;;;;;;0.00;0.00;;;21.60;49.50;;;19.85;38.11;99864.84;10163974;28;96733;-78
2022/05/03 15:53:59;;;;;;;0.20;0.20;;;21.20;51.20;;;19.47;38.78;99862.59;10152789;28;97859;-78
2022/05/03 15:59:03;;;;;;;0.00;0.00;;;20.70;51.80;;;19.14;40.67;99863.16;10150922;28;96752;-78
2022/05/03 16:04:06;;;;;;;0.20;0.20;;;20.40;54.30;;;18.70;44.10;99873.31;10163460;28;96598;-78
2022/05/03 16:09:10;;;;;;;0.00;0.00;;;19.90;58.00;;;18.18;48.29;99881.84;10166154;28;98206;-78
2022/05/03 16:14:13;;;;;;;0.63;0.30;;;19.40;63.10;;;17.49;51.84;99890.19;10148548;28;97335;-78
2022/05/03 16:19:18;;;;;;;0.00;0.00;;;18.70;66.50;;;16.86;55.03;99893.78;10165917;28;96552;-78
2022/05/03 16:24:22;;;;;;;0.00;0.00;;;18.10;70.40;;;16.37;57.28;99900.56;10165366;28;96596;-78
2022/05/03 16:29:26;;;;;;;0.00;0.00;;;17.60;72.60;;;16.03;57.95;99893.69;10150893;28;96694;-78
2022/05/03 16:34:29;;;;;;;0.10;0.10;;;17.30;72.80;;;15.69;59.56;99892.94;10155781;28;98267;-77
2022/05/03 16:44:56;;;;;;;0.17;0.17;;;16.60;78.30;;;15.31;61.84;99886.56;10169309;28;97429;-79
2022/05/03 16:49:59;;;;;;;0.13;0.10;;;16.50;82.20;;;15.27;61.91;99910.25;10168010;28;96635;-78
2022/05/03 16:55:03;;;;;;;0.00;0.00;;;16.50;82.10;;;15.30;64.71;99931.25;10150320;28;97022;-78
2022/05/03 17:00:08;;;;;;;0.10;0.05;;;16.50;90.40;;;15.27;65.31;99920.94;10154045;28;96554;-78
2022/05/03 17:05:10;;;;;;;0.05;0.05;;;16.50;92.20;;;15.30;65.46;99936.63;10149666;28;96592;-78
2022/05/03 17:10:13;;;;;;;1.20;1.13;;;16.50;94.20;;;15.24;66.95;99926.72;10150092;28;97587;-78
2022/05/03 17:15:17;;;;;;;0.20;0.20;;;16.50;97.90;;;15.24;67.84;99938.25;10153288;28;97401;-78
2022/05/03 17:20:21;;;;;;;0.00;0.00;;;16.40;98.20;;;15.30;68.06;99949.16;10165498;28;96647;-78
2022/05/03 17:25:25;;;;;;;0.00;0.00;;;16.50;99.30;;;15.21;69.09;99943.19;10174143;28;96528;-78
2022/05/03 17:30:28;;;;;;;1.40;0.85;;;16.50;99.90;;;15.14;69.14;99951.19;10156255;28;96653;-78
2022/05/03 17:35:31;;;;;;;0.60;0.47;;;16.40;99.90;;;15.02;69.23;99955.50;10158095;28;96509;-78
2022/05/03 17:40:34;;;;;;;0.00;0.00;;;16.30;99.90;;;14.93;69.99;99951.34;10157545;28;97717;-78
2022/05/03 17:45:37;;;;;;;0.00;0.00;;;16.20;99.90;;;14.85;70.19;99959.56;10169725;28;96556;-78
2022/05/03 17:50:40;;;;;;;0.00;0.00;;;16.10;99.90;;;14.72;70.65;99958.50;10173637;28;96712;-78
2022/05/03 17:55:43;;;;;;;0.32;0.15;;;16.00;99.90;;;14.60;70.45;99967.31;10172416;28;98275;-78
2022/05/03 18:00:46;;;;;;;0.80;0.53;;;15.80;99.90;;;14.48;71.16;99969.72;10154811;28;97040;-78
2022/05/03 18:05:49;;;;;;;0.10;0.10;;;15.70;99.90;;;14.37;71.75;99978.25;10163717;28;96652;-78
2022/05/03 18:10:51;;;;;;;0.20;0.13;;;15.60;99.90;;;14.23;71.57;99988.06;10172904;28;96490;-78
2022/05/03 18:15:56;;;;;;;0.13;0.13;;;15.50;99.90;;;14.15;71.54;99997.06;10152417;28;97718;-78
2022/05/03 18:21:00;;;;;;;0.20;0.20;;;15.40;99.90;;;14.08;71.50;100000.69;10150556;28;96743;-78
2022/05/03 18:26:06;;;;;;;0.00;0.00;;;15.30;99.90;;;14.00;71.73;100003.53;10154122;28;96565;-78
2022/05/03 18:31:09;;;;;;;0.00;0.00;;;15.30;99.90;;;13.85;72.41;100003.63;10163249;28;96677;-77
2022/05/03 18:36:12;;;;;;;0.20;0.20;;;15.10;99.90;;;13.76;73.13;100010.94;10169157;28;98380;-77
2022/05/03 18:41:15;;;;;;;0.00;0.00;;;15.00;99.90;;;13.69;73.23;100020.75;10160320;28;98629;-78
2022/05/03 18:46:18;;;;;;;0.40;0.20;;;15.00;99.90;;;13.60;73.49;100013.88;10179936;28;96995;-78
2022/05/03 18:51:21;;;;;;;0.00;0.00;;;14.90;99.90;;;13.57;73.36;100019.63;10168201;28;96651;-80
2022/05/03 18:56:25;;;;;;;0.00;0.00;;;14.80;99.90;;;13.58;73.45;100023.94;10150136;28;96964;-81
2022/05/03 19:01:28;;;;;;;0.00;0.00;;;14.90;99.90;;;13.56;74.04;100018.81;10168611;28;97476;-80
2022/05/03 19:06:31;;;;;;;0.00;0.00;;;14.80;99.90;;;13.60;74.08;100019.22;10178197;28;96754;-81
2022/05/03 19:11:34;;;;;;;0.00;0.00;;;14.80;99.90;;;13.59;73.92;100023.75;10174450;28;97457;-81
2022/05/03 19:16:36;;;;;;;0.00;0.00;;;14.90;99.90;;;13.59;74.12;100015.72;10164157;28;97197;-79
2022/05/03 19:21:40;;;;;;;0.10;0.10;;;14.90;99.90;;;13.61;73.79;100007.53;10152340;28;98411;-80
2022/05/03 19:32:06;;;;;;;;;;;14.90;99.90;;;13.55;74.30;100021.63;10165710;28;96650;-81
2022/05/03 19:37:10;;;;;;;0.00;0.00;;;14.80;99.90;;;13.44;75.24;100022.19;10154179;28;97594;-80
2022/05/03 19:42:14;;;;;;;0.00;0.00;;;14.70;99.90;;;13.39;75.14;100018.22;10150086;28;97570;-80
2022/05/03 19:47:17;;;;;;;0.00;0.00;;;14.70;99.90;;;13.45;74.90;100021.16;10169248;28;96611;-80
2022/05/03 19:52:38;;;;;;;;;;;14.70;99.90;;;13.45;74.95;100026.50;10138513;28;98555;-80
2022/05/03 19:57:41;;;;;;;0.00;0.00;;;14.70;99.90;;;13.41;75.18;100041.22;10158718;28;97677;-80
2022/05/03 20:02:44;;;;;;;0.07;0.07;;;14.70;99.90;;;13.39;75.86;100038.75;10146759;28;97560;-80
2022/05/03 20:07:52;;;;;;;0.43;0.17;;;14.70;99.90;;;13.35;76.73;100046.31;10152135;28;97488;-80
2022/05/03 20:12:55;;;;;;;0.00;0.00;;;14.70;99.90;;;13.23;76.92;100049.66;10156550;28;98367;-80
2022/05/03 20:17:57;;;;;;;0.00;0.00;;;14.60;99.90;;;13.14;77.53;100051.59;10150382;28;96653;-80
2022/05/03 20:23:05;;;;;;;0.00;0.00;;;14.40;99.90;;;13.16;77.55;100056.72;10161792;28;96657;-80
2022/05/03 20:28:08;;;;;;;0.00;0.00;;;14.40;99.90;;;13.18;78.19;100058.19;10152698;28;96823;-80
2022/05/03 20:33:11;;;;;;;0.00;0.00;;;14.40;99.90;;;13.19;77.98;100059.00;10135472;28;96894;-80
2022/05/03 20:38:14;;;;;;;0.27;0.07;;;14.50;99.90;;;13.18;77.88;100052.03;10167190;28;96599;-80
2022/05/03 20:43:17;;;;;;;0.00;0.00;;;14.50;99.90;;;13.21;77.84;100052.53;10168756;28;96501;-80
2022/05/03 20:53:42;;;;;;;0.20;0.20;;;14.50;99.90;;;13.28;76.85;100056.09;10166100;28;96992;-80
2022/05/03 20:58:45;;;;;;;0.07;0.00;;;14.60;99.90;;;13.30;76.49;100063.91;10162938;28;96940;-79
2022/05/03 21:03:48;;;;;;;0.00;0.00;;;14.60;99.90;;;13.30;76.95;100071.91;10167964;28;98813;-81
2022/05/03 21:08:51;;;;;;;0.00;0.00;;;14.70;99.90;;;13.22;77.40;100086.19;10149657;28;96583;-81
2022/05/03 21:13:53;;;;;;;0.00;0.00;;;14.60;99.90;;;12.98;78.63;100076.63;10166833;28;97423;-80
2022/05/03 21:18:57;;;;;;;0.00;0.00;;;14.40;99.90;;;12.81;79.09;100075.19;10166851;28;96774;-80
2022/05/03 21:24:00;;;;;;;0.00;0.00;;;14.20;99.90;;;12.57;79.70;100074.44;10151046;28;96726;-80
2022/05/03 21:29:03;;;;;;;0.00;0.00;;;13.90;99.90;;;12.44;80.33;100070.78;10151379;28;96683;-80
2022/05/03 21:34:08;;;;;;;0.00;0.00;;;13.80;99.90;;;12.38;80.29;100084.84;10165517;28;96838;-80
2022/05/03 21:39:11;;;;;;;0.00;0.00;;;13.70;99.90;;;12.26;80.04;100084.44;10151630;28;96827;-80
2022/05/03 21:44:13;;;;;;;0.00;0.00;;;13.60;99.90;;;12.10;80.68;100085.41;10150819;28;96840;-80
2022/05/03 21:49:17;;;;;;;0.13;0.13;;;13.50;99.90;;;11.98;80.86;100093.00;10142140;28;98668;-80
2022/05/03 21:54:21;;;;;;;0.00;0.00;;;13.40;99.90;;;11.85;81.33;100087.47;10111593;28;97907;-80
2022/05/03 21:59:24;;;;;;;0.00;0.00;;;13.20;99.90;;;11.70;81.61;100090.06;10154118;28;98719;-80
2022/05/03 22:04:27;;;;;;;0.00;0.00;;;13.10;99.90;;;11.59;81.76;100101.13;10171036;28;97180;-80
2022/05/03 22:09:31;;;;;;;0.00;0.00;;;13.00;99.90;;;11.49;81.67;100101.34;10157264;28;96727;-81
2022/05/03 22:14:34;;;;;;;0.00;0.00;;;12.80;99.90;;;11.40;81.22;100094.41;10171160;28;97056;-80
2022/05/03 22:19:37;;;;;;;0.00;0.00;;;12.70;99.90;;;11.41;81.30;100104.06;10146144;28;96630;-80
2022/05/03 22:24:41;;;;;;;0.00;0.00;;;12.70;99.90;;;11.41;80.97;100104.06;10132238;28;97428;-80
2022/05/03 22:29:44;;;;;;;0.00;0.00;;;12.80;99.90;;;11.42;80.77;100099.56;10171099;28;97781;-80